sensor_id;sensor_type;location;lat;lon;timestamp;P1;durP1;ratioP1;P2;durP2;ratioP2
6015;SDS011;3036;49.960;8.454;2022-12-18T00:01:59;2.47;;;1.47;;
6015;SDS011;3036;49.960;8.454;2022-12-18T00:04:26;1.43;;;1.43;;
6015;SDS011;3036;49.960;8.454;2022-12-18T00:06:53;6.37;;;3.37;;
6015;SDS011;3036;49.960;8.454;2022-12-18T00:09:22;2.60;;;2.47;;
6015;SDS011;3036;49.960;8.454;2022-12-18T00:11:49;2.53;;;1.60;;
6015;SDS011;3036;49.960;8.454;2022-12-18T00:14:16;4.87;;;1.33;;
6015;SDS011;3036;49.960;8.454;2022-12-18T00:16:44;1.33;;;1.23;;
6015;SDS011;3036;49.960;8.454;2022-12-18T00:19:11;1.53;;;1.53;;
6015;SDS011;3036;49.960;8.454;2022-12-18T00:21:40;4.13;;;2.23;;
6015;SDS011;3036;49.960;8.454;2022-12-18T00:24:07;2.50;;;1.47;;
6015;SDS011;3036;49.960;8.454;2022-12-18T00:26:36;4.20;;;1.83;;
6015;SDS011;3036;49.960;8.454;2022-12-18T00:29:04;2.43;;;1.53;;
6015;SDS011;3036;49.960;8.454;2022-12-18T00:31:31;1.30;;;1.20;;
6015;SDS011;3036;49.960;8.454;2022-12-18T00:33:58;4.43;;;3.07;;
6015;SDS011;3036;49.960;8.454;2022-12-18T00:36:26;1.50;;;1.47;;
6015;SDS011;3036;49.960;8.454;2022-12-18T00:38:54;4.73;;;3.43;;
6015;SDS011;3036;49.960;8.454;2022-12-18T00:41:21;2.60;;;1.77;;
6015;SDS011;3036;49.960;8.454;2022-12-18T00:44:09;1.47;;;1.33;;
6015;SDS011;3036;49.960;8.454;2022-12-18T00:46:36;1.13;;;0.70;;
6015;SDS011;3036;49.960;8.454;2022-12-18T00:49:03;2.90;;;1.87;;
6015;SDS011;3036;49.960;8.454;2022-12-18T00:51:31;3.83;;;2.37;;
6015;SDS011;3036;49.960;8.454;2022-12-18T00:53:58;3.63;;;1.27;;
6015;SDS011;3036;49.960;8.454;2022-12-18T00:56:25;2.63;;;2.43;;
6015;SDS011;3036;49.960;8.454;2022-12-18T00:58:52;1.40;;;1.23;;
6015;SDS011;3036;49.960;8.454;2022-12-18T01:01:21;5.10;;;1.30;;
6015;SDS011;3036;49.960;8.454;2022-12-18T01:03:48;1.60;;;1.60;;
6015;SDS011;3036;49.960;8.454;2022-12-18T01:06:16;3.60;;;0.63;;
6015;SDS011;3036;49.960;8.454;2022-12-18T01:08:57;2.67;;;1.07;;
6015;SDS011;3036;49.960;8.454;2022-12-18T01:11:24;2.97;;;0.40;;
6015;SDS011;3036;49.960;8.454;2022-12-18T01:13:51;1.63;;;1.33;;
6015;SDS011;3036;49.960;8.454;2022-12-18T01:16:18;0.97;;;0.97;;
6015;SDS011;3036;49.960;8.454;2022-12-18T01:18:47;0.73;;;0.73;;
6015;SDS011;3036;49.960;8.454;2022-12-18T01:21:15;2.43;;;0.50;;
6015;SDS011;3036;49.960;8.454;2022-12-18T01:23:42;2.30;;;1.27;;
6015;SDS011;3036;49.960;8.454;2022-12-18T01:26:10;3.33;;;0.87;;
6015;SDS011;3036;49.960;8.454;2022-12-18T01:28:38;0.93;;;0.93;;
6015;SDS011;3036;49.960;8.454;2022-12-18T01:31:09;2.70;;;1.20;;
6015;SDS011;3036;49.960;8.454;2022-12-18T01:33:36;0.50;;;0.50;;
6015;SDS011;3036;49.960;8.454;2022-12-18T01:36:05;6.20;;;1.33;;
6015;SDS011;3036;49.960;8.454;2022-12-18T01:38:32;1.63;;;1.47;;
6015;SDS011;3036;49.960;8.454;2022-12-18T01:40:59;2.13;;;2.00;;
6015;SDS011;3036;49.960;8.454;2022-12-18T01:43:47;2.80;;;1.77;;
6015;SDS011;3036;49.960;8.454;2022-12-18T01:46:14;0.27;;;0.27;;
6015;SDS011;3036;49.960;8.454;2022-12-18T01:48:41;0.70;;;0.70;;
6015;SDS011;3036;49.960;8.454;2022-12-18T01:51:10;1.70;;;1.47;;
6015;SDS011;3036;49.960;8.454;2022-12-18T01:53:38;3.83;;;2.23;;
6015;SDS011;3036;49.960;8.454;2022-12-18T01:56:06;2.53;;;0.97;;
6015;SDS011;3036;49.960;8.454;2022-12-18T01:58:35;0.73;;;0.73;;
6015;SDS011;3036;49.960;8.454;2022-12-18T02:01:03;2.20;;;2.00;;
6015;SDS011;3036;49.960;8.454;2022-12-18T02:03:31;3.33;;;2.13;;
6015;SDS011;3036;49.960;8.454;2022-12-18T02:05:59;0.20;;;0.20;;
6015;SDS011;3036;49.960;8.454;2022-12-18T02:08:33;1.20;;;0.60;;
6015;SDS011;3036;49.960;8.454;2022-12-18T02:11:05;0.97;;;0.97;;
6015;SDS011;3036;49.960;8.454;2022-12-18T02:13:36;1.00;;;1.00;;
6015;SDS011;3036;49.960;8.454;2022-12-18T02:16:06;2.43;;;1.20;;
6015;SDS011;3036;49.960;8.454;2022-12-18T02:18:36;0.30;;;0.30;;
6015;SDS011;3036;49.960;8.454;2022-12-18T02:21:08;6.73;;;1.37;;
6015;SDS011;3036;49.960;8.454;2022-12-18T02:23:42;3.50;;;1.83;;
6015;SDS011;3036;49.960;8.454;2022-12-18T02:26:24;1.50;;;1.13;;
6015;SDS011;3036;49.960;8.454;2022-12-18T02:28:53;3.20;;;1.47;;
6015;SDS011;3036;49.960;8.454;2022-12-18T02:31:23;1.00;;;1.00;;
6015;SDS011;3036;49.960;8.454;2022-12-18T02:33:51;3.50;;;1.63;;
6015;SDS011;3036;49.960;8.454;2022-12-18T02:36:21;2.10;;;1.33;;
6015;SDS011;3036;49.960;8.454;2022-12-18T02:38:49;0.87;;;0.87;;
6015;SDS011;3036;49.960;8.454;2022-12-18T02:41:18;2.97;;;1.30;;
6015;SDS011;3036;49.960;8.454;2022-12-18T02:43:46;2.53;;;2.07;;
6015;SDS011;3036;49.960;8.454;2022-12-18T02:46:25;5.73;;;1.83;;
6015;SDS011;3036;49.960;8.454;2022-12-18T02:48:52;0.60;;;0.60;;
6015;SDS011;3036;49.960;8.454;2022-12-18T02:51:23;1.00;;;0.70;;
6015;SDS011;3036;49.960;8.454;2022-12-18T02:53:53;1.63;;;0.67;;
6015;SDS011;3036;49.960;8.454;2022-12-18T02:56:26;2.23;;;1.50;;
6015;SDS011;3036;49.960;8.454;2022-12-18T02:58:55;4.43;;;1.70;;
6015;SDS011;3036;49.960;8.454;2022-12-18T03:01:28;1.87;;;1.40;;
6015;SDS011;3036;49.960;8.454;2022-12-18T03:03:59;1.20;;;1.10;;
6015;SDS011;3036;49.960;8.454;2022-12-18T03:06:28;1.33;;;1.33;;
6015;SDS011;3036;49.960;8.454;2022-12-18T03:08:57;0.87;;;0.87;;
6015;SDS011;3036;49.960;8.454;2022-12-18T03:11:26;6.03;;;1.20;;
6015;SDS011;3036;49.960;8.454;2022-12-18T03:14:08;2.83;;;1.23;;
6015;SDS011;3036;49.960;8.454;2022-12-18T03:16:37;1.43;;;1.33;;
6015;SDS011;3036;49.960;8.454;2022-12-18T03:19:05;0.47;;;0.47;;
6015;SDS011;3036;49.960;8.454;2022-12-18T03:21:34;3.57;;;1.23;;
6015;SDS011;3036;49.960;8.454;2022-12-18T03:24:04;0.73;;;0.70;;
6015;SDS011;3036;49.960;8.454;2022-12-18T03:26:34;1.27;;;1.27;;
6015;SDS011;3036;49.960;8.454;2022-12-18T03:29:02;0.97;;;0.53;;
6015;SDS011;3036;49.960;8.454;2022-12-18T03:31:30;0.57;;;0.57;;
6015;SDS011;3036;49.960;8.454;2022-12-18T03:33:58;0.90;;;0.73;;
6015;SDS011;3036;49.960;8.454;2022-12-18T03:36:26;0.57;;;0.57;;
6015;SDS011;3036;49.960;8.454;2022-12-18T03:38:53;1.90;;;0.97;;
6015;SDS011;3036;49.960;8.454;2022-12-18T03:41:23;0.73;;;0.73;;
6015;SDS011;3036;49.960;8.454;2022-12-18T03:44:02;0.37;;;0.37;;
6015;SDS011;3036;49.960;8.454;2022-12-18T03:46:33;2.10;;;0.93;;
6015;SDS011;3036;49.960;8.454;2022-12-18T03:49:06;0.37;;;0.37;;
6015;SDS011;3036;49.960;8.454;2022-12-18T03:51:36;1.03;;;1.03;;
6015;SDS011;3036;49.960;8.454;2022-12-18T03:54:04;1.70;;;1.60;;
6015;SDS011;3036;49.960;8.454;2022-12-18T03:56:35;2.77;;;1.37;;
6015;SDS011;3036;49.960;8.454;2022-12-18T03:59:05;1.10;;;0.30;;
6015;SDS011;3036;49.960;8.454;2022-12-18T04:01:33;2.23;;;1.13;;
6015;SDS011;3036;49.960;8.454;2022-12-18T04:04:01;0.87;;;0.77;;
6015;SDS011;3036;49.960;8.454;2022-12-18T04:06:29;0.57;;;0.57;;
6015;SDS011;3036;49.960;8.454;2022-12-18T04:08:57;1.13;;;1.03;;
6015;SDS011;3036;49.960;8.454;2022-12-18T04:11:24;7.03;;;1.47;;
6015;SDS011;3036;49.960;8.454;2022-12-18T04:13:52;0.83;;;0.83;;
6015;SDS011;3036;49.960;8.454;2022-12-18T04:16:23;0.37;;;0.37;;
6015;SDS011;3036;49.960;8.454;2022-12-18T04:18:50;3.00;;;1.00;;
6015;SDS011;3036;49.960;8.454;2022-12-18T04:21:18;2.10;;;1.40;;
6015;SDS011;3036;49.960;8.454;2022-12-18T04:23:45;4.67;;;1.77;;
6015;SDS011;3036;49.960;8.454;2022-12-18T04:26:12;1.03;;;1.03;;
6015;SDS011;3036;49.960;8.454;2022-12-18T04:28:39;0.43;;;0.43;;
6015;SDS011;3036;49.960;8.454;2022-12-18T04:31:06;2.63;;;1.50;;
6015;SDS011;3036;49.960;8.454;2022-12-18T04:33:34;4.23;;;1.30;;
6015;SDS011;3036;49.960;8.454;2022-12-18T04:36:01;1.23;;;1.13;;
6015;SDS011;3036;49.960;8.454;2022-12-18T04:38:28;2.90;;;2.37;;
6015;SDS011;3036;49.960;8.454;2022-12-18T04:40:55;0.87;;;0.87;;
6015;SDS011;3036;49.960;8.454;2022-12-18T04:43:22;0.87;;;0.67;;
6015;SDS011;3036;49.960;8.454;2022-12-18T04:45:50;2.10;;;1.90;;
6015;SDS011;3036;49.960;8.454;2022-12-18T04:48:17;3.07;;;1.90;;
6015;SDS011;3036;49.960;8.454;2022-12-18T04:50:46;4.03;;;2.20;;
6015;SDS011;3036;49.960;8.454;2022-12-18T04:53:13;1.17;;;0.63;;
6015;SDS011;3036;49.960;8.454;2022-12-18T04:55:40;0.57;;;0.57;;
6015;SDS011;3036;49.960;8.454;2022-12-18T04:58:07;5.63;;;4.23;;
6015;SDS011;3036;49.960;8.454;2022-12-18T05:00:34;1.17;;;1.17;;
6015;SDS011;3036;49.960;8.454;2022-12-18T05:03:02;1.27;;;1.00;;
6015;SDS011;3036;49.960;8.454;2022-12-18T05:05:29;0.73;;;0.73;;
6015;SDS011;3036;49.960;8.454;2022-12-18T05:07:57;0.80;;;0.80;;
6015;SDS011;3036;49.960;8.454;2022-12-18T05:10:24;2.67;;;2.43;;
6015;SDS011;3036;49.960;8.454;2022-12-18T05:12:51;0.67;;;0.67;;
6015;SDS011;3036;49.960;8.454;2022-12-18T05:15:26;2.00;;;1.70;;
6015;SDS011;3036;49.960;8.454;2022-12-18T05:17:53;2.20;;;0.87;;
6015;SDS011;3036;49.960;8.454;2022-12-18T05:20:20;1.07;;;0.70;;
6015;SDS011;3036;49.960;8.454;2022-12-18T05:22:47;1.73;;;1.63;;
6015;SDS011;3036;49.960;8.454;2022-12-18T05:25:15;1.60;;;1.50;;
6015;SDS011;3036;49.960;8.454;2022-12-18T05:27:42;0.60;;;0.60;;
6015;SDS011;3036;49.960;8.454;2022-12-18T05:30:10;1.90;;;1.30;;
6015;SDS011;3036;49.960;8.454;2022-12-18T05:32:37;3.70;;;1.37;;
6015;SDS011;3036;49.960;8.454;2022-12-18T05:35:06;1.03;;;1.03;;
6015;SDS011;3036;49.960;8.454;2022-12-18T05:37:33;0.60;;;0.60;;
6015;SDS011;3036;49.960;8.454;2022-12-18T05:40:00;0.90;;;0.90;;
6015;SDS011;3036;49.960;8.454;2022-12-18T05:42:29;1.03;;;1.03;;
6015;SDS011;3036;49.960;8.454;2022-12-18T05:44:56;1.83;;;1.13;;
6015;SDS011;3036;49.960;8.454;2022-12-18T05:47:23;6.37;;;2.13;;
6015;SDS011;3036;49.960;8.454;2022-12-18T05:49:50;0.93;;;0.90;;
6015;SDS011;3036;49.960;8.454;2022-12-18T05:52:17;13.40;;;2.30;;
6015;SDS011;3036;49.960;8.454;2022-12-18T05:54:44;0.43;;;0.43;;
6015;SDS011;3036;49.960;8.454;2022-12-18T05:57:11;1.63;;;1.63;;
6015;SDS011;3036;49.960;8.454;2022-12-18T05:59:39;10.93;;;1.77;;
6015;SDS011;3036;49.960;8.454;2022-12-18T06:02:06;1.47;;;1.37;;
6015;SDS011;3036;49.960;8.454;2022-12-18T06:04:33;0.23;;;0.23;;
6015;SDS011;3036;49.960;8.454;2022-12-18T06:07:00;0.90;;;0.90;;
6015;SDS011;3036;49.960;8.454;2022-12-18T06:09:28;5.53;;;1.07;;
6015;SDS011;3036;49.960;8.454;2022-12-18T06:11:55;4.73;;;1.43;;
6015;SDS011;3036;49.960;8.454;2022-12-18T06:14:22;0.30;;;0.30;;
6015;SDS011;3036;49.960;8.454;2022-12-18T06:16:51;0.63;;;0.63;;
6015;SDS011;3036;49.960;8.454;2022-12-18T06:19:19;3.77;;;1.17;;
6015;SDS011;3036;49.960;8.454;2022-12-18T06:21:46;3.97;;;1.27;;
6015;SDS011;3036;49.960;8.454;2022-12-18T06:24:14;2.77;;;1.20;;
6015;SDS011;3036;49.960;8.454;2022-12-18T06:26:41;1.27;;;1.17;;
6015;SDS011;3036;49.960;8.454;2022-12-18T06:29:08;0.93;;;0.70;;
6015;SDS011;3036;49.960;8.454;2022-12-18T06:31:35;3.60;;;1.23;;
6015;SDS011;3036;49.960;8.454;2022-12-18T06:34:04;1.60;;;0.83;;
6015;SDS011;3036;49.960;8.454;2022-12-18T06:36:31;0.47;;;0.47;;
6015;SDS011;3036;49.960;8.454;2022-12-18T06:38:58;5.43;;;1.13;;
6015;SDS011;3036;49.960;8.454;2022-12-18T06:41:26;2.33;;;1.87;;
6015;SDS011;3036;49.960;8.454;2022-12-18T06:43:53;3.00;;;1.43;;
6015;SDS011;3036;49.960;8.454;2022-12-18T06:46:20;1.80;;;1.23;;
6015;SDS011;3036;49.960;8.454;2022-12-18T06:48:47;0.67;;;0.67;;
6015;SDS011;3036;49.960;8.454;2022-12-18T06:51:17;2.00;;;0.83;;
6015;SDS011;3036;49.960;8.454;2022-12-18T06:53:45;1.73;;;1.10;;
6015;SDS011;3036;49.960;8.454;2022-12-18T06:56:12;1.17;;;0.97;;
6015;SDS011;3036;49.960;8.454;2022-12-18T06:58:39;0.90;;;0.90;;
6015;SDS011;3036;49.960;8.454;2022-12-18T07:01:07;2.67;;;0.97;;
6015;SDS011;3036;49.960;8.454;2022-12-18T07:03:34;1.30;;;1.30;;
6015;SDS011;3036;49.960;8.454;2022-12-18T07:06:02;0.53;;;0.53;;
6015;SDS011;3036;49.960;8.454;2022-12-18T07:08:31;4.17;;;1.53;;
6015;SDS011;3036;49.960;8.454;2022-12-18T07:10:58;1.17;;;1.13;;
6015;SDS011;3036;49.960;8.454;2022-12-18T07:13:25;0.80;;;0.80;;
6015;SDS011;3036;49.960;8.454;2022-12-18T07:15:52;1.63;;;1.57;;
6015;SDS011;3036;49.960;8.454;2022-12-18T07:18:19;3.57;;;1.47;;
6015;SDS011;3036;49.960;8.454;2022-12-18T07:20:46;3.63;;;1.37;;
6015;SDS011;3036;49.960;8.454;2022-12-18T07:23:13;1.73;;;1.47;;
6015;SDS011;3036;49.960;8.454;2022-12-18T07:25:42;2.80;;;2.40;;
6015;SDS011;3036;49.960;8.454;2022-12-18T07:28:09;2.90;;;2.23;;
6015;SDS011;3036;49.960;8.454;2022-12-18T07:30:37;0.80;;;0.80;;
6015;SDS011;3036;49.960;8.454;2022-12-18T07:33:04;2.13;;;2.00;;
6015;SDS011;3036;49.960;8.454;2022-12-18T07:35:32;1.23;;;1.23;;
6015;SDS011;3036;49.960;8.454;2022-12-18T07:37:59;2.23;;;2.03;;
6015;SDS011;3036;49.960;8.454;2022-12-18T07:40:26;1.40;;;1.30;;
6015;SDS011;3036;49.960;8.454;2022-12-18T07:42:54;3.37;;;1.20;;
6015;SDS011;3036;49.960;8.454;2022-12-18T07:45:21;1.83;;;1.77;;
6015;SDS011;3036;49.960;8.454;2022-12-18T07:47:48;1.67;;;1.43;;
6015;SDS011;3036;49.960;8.454;2022-12-18T07:50:16;1.67;;;1.43;;
6015;SDS011;3036;49.960;8.454;2022-12-18T07:52:43;3.23;;;1.27;;
6015;SDS011;3036;49.960;8.454;2022-12-18T07:55:10;1.60;;;1.50;;
6015;SDS011;3036;49.960;8.454;2022-12-18T07:57:37;5.80;;;1.50;;
6015;SDS011;3036;49.960;8.454;2022-12-18T08:00:06;4.27;;;3.03;;
6015;SDS011;3036;49.960;8.454;2022-12-18T08:02:33;3.83;;;2.00;;
6015;SDS011;3036;49.960;8.454;2022-12-18T08:05:00;2.43;;;2.23;;
6015;SDS011;3036;49.960;8.454;2022-12-18T08:07:27;7.17;;;3.30;;
6015;SDS011;3036;49.960;8.454;2022-12-18T08:09:54;6.33;;;1.80;;
6015;SDS011;3036;49.960;8.454;2022-12-18T08:12:21;5.60;;;2.97;;
6015;SDS011;3036;49.960;8.454;2022-12-18T08:14:48;2.60;;;1.97;;
6015;SDS011;3036;49.960;8.454;2022-12-18T08:17:17;4.00;;;2.07;;
6015;SDS011;3036;49.960;8.454;2022-12-18T08:19:44;3.50;;;1.73;;
6015;SDS011;3036;49.960;8.454;2022-12-18T08:22:11;1.47;;;1.40;;
6015;SDS011;3036;49.960;8.454;2022-12-18T08:24:38;2.47;;;2.23;;
6015;SDS011;3036;49.960;8.454;2022-12-18T08:27:05;1.80;;;1.67;;
6015;SDS011;3036;49.960;8.454;2022-12-18T08:29:32;3.00;;;2.20;;
6015;SDS011;3036;49.960;8.454;2022-12-18T08:31:59;2.37;;;2.10;;
6015;SDS011;3036;49.960;8.454;2022-12-18T08:34:28;2.50;;;2.30;;
6015;SDS011;3036;49.960;8.454;2022-12-18T08:36:55;2.43;;;2.33;;
6015;SDS011;3036;49.960;8.454;2022-12-18T08:39:22;2.10;;;1.23;;
6015;SDS011;3036;49.960;8.454;2022-12-18T08:41:49;1.77;;;1.67;;
6015;SDS011;3036;49.960;8.454;2022-12-18T08:44:30;3.50;;;1.20;;
6015;SDS011;3036;49.960;8.454;2022-12-18T08:47:06;6.70;;;2.23;;
6015;SDS011;3036;49.960;8.454;2022-12-18T08:49:35;3.93;;;2.23;;
6015;SDS011;3036;49.960;8.454;2022-12-18T08:52:02;1.17;;;1.13;;
6015;SDS011;3036;49.960;8.454;2022-12-18T08:54:29;1.87;;;1.77;;
6015;SDS011;3036;49.960;8.454;2022-12-18T08:56:56;1.47;;;1.37;;
6015;SDS011;3036;49.960;8.454;2022-12-18T08:59:23;2.57;;;2.33;;
6015;SDS011;3036;49.960;8.454;2022-12-18T09:01:53;6.33;;;2.00;;
6015;SDS011;3036;49.960;8.454;2022-12-18T09:04:20;2.13;;;1.73;;
6015;SDS011;3036;49.960;8.454;2022-12-18T09:06:48;2.87;;;2.00;;
6015;SDS011;3036;49.960;8.454;2022-12-18T09:09:15;2.77;;;2.30;;
6015;SDS011;3036;49.960;8.454;2022-12-18T09:11:42;5.73;;;3.10;;
6015;SDS011;3036;49.960;8.454;2022-12-18T09:14:09;4.37;;;3.07;;
6015;SDS011;3036;49.960;8.454;2022-12-18T09:16:37;2.00;;;1.80;;
6015;SDS011;3036;49.960;8.454;2022-12-18T09:19:04;2.00;;;1.83;;
6015;SDS011;3036;49.960;8.454;2022-12-18T09:21:32;2.80;;;1.03;;
6015;SDS011;3036;49.960;8.454;2022-12-18T09:24:04;4.90;;;3.70;;
6015;SDS011;3036;49.960;8.454;2022-12-18T09:26:32;1.60;;;1.60;;
6015;SDS011;3036;49.960;8.454;2022-12-18T09:28:59;0.93;;;0.93;;
6015;SDS011;3036;49.960;8.454;2022-12-18T09:31:26;3.27;;;2.47;;
6015;SDS011;3036;49.960;8.454;2022-12-18T09:33:54;4.43;;;3.10;;
6015;SDS011;3036;49.960;8.454;2022-12-18T09:36:21;3.20;;;2.87;;
6015;SDS011;3036;49.960;8.454;2022-12-18T09:38:48;5.53;;;3.73;;
6015;SDS011;3036;49.960;8.454;2022-12-18T09:41:20;6.27;;;3.53;;
6015;SDS011;3036;49.960;8.454;2022-12-18T09:43:50;4.17;;;3.33;;
6015;SDS011;3036;49.960;8.454;2022-12-18T09:46:19;4.77;;;2.57;;
6015;SDS011;3036;49.960;8.454;2022-12-18T09:48:50;6.70;;;3.57;;
6015;SDS011;3036;49.960;8.454;2022-12-18T09:51:19;5.27;;;2.17;;
6015;SDS011;3036;49.960;8.454;2022-12-18T09:53:50;6.13;;;4.03;;
6015;SDS011;3036;49.960;8.454;2022-12-18T09:56:20;2.30;;;2.20;;
6015;SDS011;3036;49.960;8.454;2022-12-18T09:58:50;3.40;;;1.63;;
6015;SDS011;3036;49.960;8.454;2022-12-18T10:01:20;6.83;;;3.43;;
6015;SDS011;3036;49.960;8.454;2022-12-18T10:03:47;2.87;;;2.13;;
6015;SDS011;3036;49.960;8.454;2022-12-18T10:06:15;2.50;;;2.40;;
6015;SDS011;3036;49.960;8.454;2022-12-18T10:08:46;3.23;;;3.03;;
6015;SDS011;3036;49.960;8.454;2022-12-18T10:11:29;1.60;;;1.50;;
6015;SDS011;3036;49.960;8.454;2022-12-18T10:14:00;8.67;;;2.87;;
6015;SDS011;3036;49.960;8.454;2022-12-18T10:16:29;3.87;;;2.60;;
6015;SDS011;3036;49.960;8.454;2022-12-18T10:19:03;5.07;;;3.87;;
6015;SDS011;3036;49.960;8.454;2022-12-18T10:21:34;10.37;;;3.57;;
6015;SDS011;3036;49.960;8.454;2022-12-18T10:24:04;3.33;;;2.87;;
6015;SDS011;3036;49.960;8.454;2022-12-18T10:26:41;10.47;;;3.70;;
6015;SDS011;3036;49.960;8.454;2022-12-18T10:29:09;6.47;;;5.37;;
6015;SDS011;3036;49.960;8.454;2022-12-18T10:31:37;3.77;;;2.27;;
6015;SDS011;3036;49.960;8.454;2022-12-18T10:34:08;3.93;;;3.37;;
6015;SDS011;3036;49.960;8.454;2022-12-18T10:36:35;7.87;;;4.37;;
6015;SDS011;3036;49.960;8.454;2022-12-18T10:39:13;2.50;;;2.27;;
6015;SDS011;3036;49.960;8.454;2022-12-18T10:41:42;6.57;;;3.10;;
6015;SDS011;3036;49.960;8.454;2022-12-18T10:44:11;4.80;;;3.53;;
6015;SDS011;3036;49.960;8.454;2022-12-18T10:46:38;8.83;;;4.17;;
6015;SDS011;3036;49.960;8.454;2022-12-18T10:49:17;3.63;;;3.20;;
6015;SDS011;3036;49.960;8.454;2022-12-18T10:51:45;7.57;;;2.20;;
6015;SDS011;3036;49.960;8.454;2022-12-18T10:54:13;7.63;;;5.10;;
6015;SDS011;3036;49.960;8.454;2022-12-18T10:56:42;3.90;;;3.20;;
6015;SDS011;3036;49.960;8.454;2022-12-18T10:59:10;3.67;;;3.37;;
6015;SDS011;3036;49.960;8.454;2022-12-18T11:01:48;3.60;;;3.30;;
6015;SDS011;3036;49.960;8.454;2022-12-18T11:04:19;5.60;;;3.33;;
6015;SDS011;3036;49.960;8.454;2022-12-18T11:06:57;8.73;;;4.53;;
6015;SDS011;3036;49.960;8.454;2022-12-18T11:09:25;3.13;;;2.23;;
6015;SDS011;3036;49.960;8.454;2022-12-18T11:11:54;6.27;;;3.07;;
6015;SDS011;3036;49.960;8.454;2022-12-18T11:14:22;6.73;;;4.03;;
6015;SDS011;3036;49.960;8.454;2022-12-18T11:16:50;10.50;;;3.93;;
6015;SDS011;3036;49.960;8.454;2022-12-18T11:19:28;4.90;;;2.03;;
6015;SDS011;3036;49.960;8.454;2022-12-18T11:21:57;8.00;;;4.17;;
6015;SDS011;3036;49.960;8.454;2022-12-18T11:24:26;2.47;;;2.20;;
6015;SDS011;3036;49.960;8.454;2022-12-18T11:26:55;8.97;;;4.20;;
6015;SDS011;3036;49.960;8.454;2022-12-18T11:29:23;2.67;;;2.47;;
6015;SDS011;3036;49.960;8.454;2022-12-18T11:31:51;10.80;;;3.33;;
6015;SDS011;3036;49.960;8.454;2022-12-18T11:34:19;8.57;;;4.13;;
6015;SDS011;3036;49.960;8.454;2022-12-18T11:36:49;8.87;;;4.27;;
6015;SDS011;3036;49.960;8.454;2022-12-18T11:39:18;26.45;;;10.93;;
6015;SDS011;3036;49.960;8.454;2022-12-18T11:41:48;13.20;;;5.53;;
6015;SDS011;3036;49.960;8.454;2022-12-18T11:44:41;5.83;;;3.43;;
6015;SDS011;3036;49.960;8.454;2022-12-18T11:47:09;11.00;;;2.37;;
6015;SDS011;3036;49.960;8.454;2022-12-18T11:49:40;4.13;;;3.17;;
6015;SDS011;3036;49.960;8.454;2022-12-18T11:52:09;8.07;;;3.93;;
6015;SDS011;3036;49.960;8.454;2022-12-18T11:54:36;6.60;;;4.30;;
6015;SDS011;3036;49.960;8.454;2022-12-18T11:57:05;5.77;;;3.60;;
6015;SDS011;3036;49.960;8.454;2022-12-18T11:59:37;17.95;;;8.55;;
6015;SDS011;3036;49.960;8.454;2022-12-18T12:02:15;13.50;;;5.10;;
6015;SDS011;3036;49.960;8.454;2022-12-18T12:04:48;9.87;;;3.07;;
6015;SDS011;3036;49.960;8.454;2022-12-18T12:07:19;8.53;;;4.63;;
6015;SDS011;3036;49.960;8.454;2022-12-18T12:09:50;22.40;;;8.30;;
6015;SDS011;3036;49.960;8.454;2022-12-18T12:12:24;11.97;;;4.10;;
6015;SDS011;3036;49.960;8.454;2022-12-18T12:14:55;7.90;;;3.33;;
6015;SDS011;3036;49.960;8.454;2022-12-18T12:17:28;8.17;;;4.40;;
6015;SDS011;3036;49.960;8.454;2022-12-18T12:19:59;7.17;;;5.80;;
6015;SDS011;3036;49.960;8.454;2022-12-18T12:22:29;5.30;;;2.37;;
6015;SDS011;3036;49.960;8.454;2022-12-18T12:25:01;6.23;;;3.50;;
6015;SDS011;3036;49.960;8.454;2022-12-18T12:27:34;1.40;;;1.40;;
6015;SDS011;3036;49.960;8.454;2022-12-18T12:30:16;6.77;;;2.83;;
6015;SDS011;3036;49.960;8.454;2022-12-18T12:32:49;2.00;;;1.50;;
6015;SDS011;3036;49.960;8.454;2022-12-18T12:35:22;5.10;;;3.80;;
6015;SDS011;3036;49.960;8.454;2022-12-18T12:37:56;8.93;;;5.07;;
6015;SDS011;3036;49.960;8.454;2022-12-18T12:40:27;3.00;;;2.70;;
6015;SDS011;3036;49.960;8.454;2022-12-18T12:42:57;1.33;;;1.20;;
6015;SDS011;3036;49.960;8.454;2022-12-18T12:45:41;7.27;;;3.00;;
6015;SDS011;3036;49.960;8.454;2022-12-18T12:48:13;1.63;;;1.40;;
6015;SDS011;3036;49.960;8.454;2022-12-18T12:50:43;2.20;;;2.03;;
6015;SDS011;3036;49.960;8.454;2022-12-18T12:53:13;3.63;;;3.33;;
6015;SDS011;3036;49.960;8.454;2022-12-18T12:55:58;8.20;;;2.70;;
6015;SDS011;3036;49.960;8.454;2022-12-18T12:58:28;3.23;;;2.83;;
6015;SDS011;3036;49.960;8.454;2022-12-18T13:00:59;9.63;;;4.13;;
6015;SDS011;3036;49.960;8.454;2022-12-18T13:03:34;8.00;;;3.20;;
6015;SDS011;3036;49.960;8.454;2022-12-18T13:06:02;6.97;;;3.80;;
6015;SDS011;3036;49.960;8.454;2022-12-18T13:08:32;6.43;;;2.37;;
6015;SDS011;3036;49.960;8.454;2022-12-18T13:10:59;10.33;;;3.30;;
6015;SDS011;3036;49.960;8.454;2022-12-18T13:13:50;9.13;;;3.83;;
6015;SDS011;3036;49.960;8.454;2022-12-18T13:16:18;5.53;;;2.60;;
6015;SDS011;3036;49.960;8.454;2022-12-18T13:18:50;4.23;;;1.87;;
6015;SDS011;3036;49.960;8.454;2022-12-18T13:21:20;1.80;;;1.50;;
6015;SDS011;3036;49.960;8.454;2022-12-18T13:23:49;6.37;;;3.27;;
6015;SDS011;3036;49.960;8.454;2022-12-18T13:26:30;7.43;;;4.03;;
6015;SDS011;3036;49.960;8.454;2022-12-18T13:28:58;2.13;;;1.93;;
6015;SDS011;3036;49.960;8.454;2022-12-18T13:34:15;0.87;;;0.87;;
6015;SDS011;3036;49.960;8.454;2022-12-18T13:36:42;7.23;;;3.57;;
6015;SDS011;3036;49.960;8.454;2022-12-18T13:45:00;8.13;;;2.77;;
6015;SDS011;3036;49.960;8.454;2022-12-18T13:47:31;12.30;;;3.70;;
6015;SDS011;3036;49.960;8.454;2022-12-18T13:50:00;9.23;;;3.67;;
6015;SDS011;3036;49.960;8.454;2022-12-18T13:52:28;3.23;;;3.03;;
6015;SDS011;3036;49.960;8.454;2022-12-18T13:55:00;7.00;;;3.90;;
6015;SDS011;3036;49.960;8.454;2022-12-18T13:57:28;3.60;;;2.40;;
6015;SDS011;3036;49.960;8.454;2022-12-18T13:59:56;2.53;;;1.90;;
6015;SDS011;3036;49.960;8.454;2022-12-18T14:02:24;6.23;;;3.80;;
6015;SDS011;3036;49.960;8.454;2022-12-18T14:04:52;5.70;;;3.10;;
6015;SDS011;3036;49.960;8.454;2022-12-18T14:07:22;4.00;;;2.77;;
6015;SDS011;3036;49.960;8.454;2022-12-18T14:09:50;2.87;;;2.00;;
6015;SDS011;3036;49.960;8.454;2022-12-18T14:12:19;10.17;;;4.43;;
6015;SDS011;3036;49.960;8.454;2022-12-18T14:15:20;5.13;;;3.93;;
6015;SDS011;3036;49.960;8.454;2022-12-18T14:17:50;1.37;;;1.20;;
6015;SDS011;3036;49.960;8.454;2022-12-18T14:20:17;3.43;;;3.13;;
6015;SDS011;3036;49.960;8.454;2022-12-18T14:22:47;5.80;;;3.67;;
6015;SDS011;3036;49.960;8.454;2022-12-18T14:25:16;6.00;;;2.73;;
6015;SDS011;3036;49.960;8.454;2022-12-18T14:27:44;8.27;;;3.67;;
6015;SDS011;3036;49.960;8.454;2022-12-18T14:30:28;12.20;;;4.67;;
6015;SDS011;3036;49.960;8.454;2022-12-18T14:33:02;7.17;;;4.47;;
6015;SDS011;3036;49.960;8.454;2022-12-18T14:35:29;5.57;;;2.30;;
6015;SDS011;3036;49.960;8.454;2022-12-18T14:38:10;7.50;;;3.13;;
6015;SDS011;3036;49.960;8.454;2022-12-18T14:40:37;15.77;;;4.77;;
6015;SDS011;3036;49.960;8.454;2022-12-18T14:43:04;6.57;;;2.97;;
6015;SDS011;3036;49.960;8.454;2022-12-18T14:45:35;3.07;;;2.77;;
6015;SDS011;3036;49.960;8.454;2022-12-18T14:48:05;4.70;;;4.27;;
6015;SDS011;3036;49.960;8.454;2022-12-18T14:50:32;1.57;;;1.57;;
6015;SDS011;3036;49.960;8.454;2022-12-18T14:52:59;3.33;;;3.03;;
6015;SDS011;3036;49.960;8.454;2022-12-18T14:55:28;9.27;;;2.63;;
6015;SDS011;3036;49.960;8.454;2022-12-18T14:57:55;3.53;;;1.57;;
6015;SDS011;3036;49.960;8.454;2022-12-18T15:00:23;10.10;;;3.90;;
6015;SDS011;3036;49.960;8.454;2022-12-18T15:02:51;11.47;;;3.60;;
6015;SDS011;3036;49.960;8.454;2022-12-18T15:05:20;4.17;;;3.37;;
6015;SDS011;3036;49.960;8.454;2022-12-18T15:07:48;14.67;;;4.70;;
6015;SDS011;3036;49.960;8.454;2022-12-18T15:10:16;15.93;;;4.90;;
6015;SDS011;3036;49.960;8.454;2022-12-18T15:12:45;12.20;;;5.50;;
6015;SDS011;3036;49.960;8.454;2022-12-18T15:18:01;6.67;;;4.10;;
6015;SDS011;3036;49.960;8.454;2022-12-18T15:20:29;15.83;;;5.17;;
6015;SDS011;3036;49.960;8.454;2022-12-18T15:22:58;3.07;;;2.37;;
6015;SDS011;3036;49.960;8.454;2022-12-18T15:25:27;15.00;;;4.47;;
6015;SDS011;3036;49.960;8.454;2022-12-18T15:27:57;5.27;;;3.93;;
6015;SDS011;3036;49.960;8.454;2022-12-18T15:30:25;15.00;;;4.37;;
6015;SDS011;3036;49.960;8.454;2022-12-18T15:32:52;7.07;;;3.90;;
6015;SDS011;3036;49.960;8.454;2022-12-18T15:35:40;6.70;;;1.20;;
6015;SDS011;3036;49.960;8.454;2022-12-18T15:38:07;5.10;;;2.77;;
6015;SDS011;3036;49.960;8.454;2022-12-18T15:40:34;6.70;;;2.77;;